Time;durP1;ratioP1;P1;durP2;ratioP2;P2;SDS_P1;SDS_P2;PMS_P1;PMS_P2;Temp;Humidity;BMP_temperature;BMP_pressure;BME280_temperature;BME280_humidity;BME280_pressure;Samples;Min_cycle;Max_cycle;Signal;HPM_P1;HPM_P2
2023/10/24 00:01:58;;;;;;;;;;;;;;;;;;5142079;27;19908;-80
2023/10/24 00:04:23;;;;;;;;;;;;;;;;;;5114881;28;19957;-79
2023/10/24 00:06:48;;;;;;;;;;;;;;;;;;5085612;28;19997;-81
2023/10/24 00:09:14;;;;;;;;;;;;;;;;;;5101871;28;19907;-80
2023/10/24 00:11:39;;;;;;;;;;;;;;;;;;5104082;28;20288;-79
2023/10/24 00:14:05;;;;;;;;;;;;;;;;;;5104898;28;19995;-80
2023/10/24 00:16:33;;;;;;;;;;;;;;;;;;5104554;28;19907;-81
2023/10/24 00:18:58;;;;;;;;;;;;;;;;;;5086365;28;19926;-81
2023/10/24 00:21:24;;;;;;;;;;;;;;;;;;5103360;28;19914;-79
2023/10/24 00:23:49;;;;;;;;;;;;;;;;;;5102471;28;19912;-81
2023/10/24 00:26:15;;;;;;;;;;;;;;;;;;5102668;28;20367;-80
2023/10/24 00:28:45;;;;;;;;;;;;;;;;;;5106604;28;19976;-81
2023/10/24 00:31:11;;;;;;;;;;;;;;;;;;5086996;28;19907;-80
2023/10/24 00:33:37;;;;;;;;;;;;;;;;;;5121381;28;19914;-80
2023/10/24 00:36:03;;;;;;;;;;;;;;;;;;5102184;28;19961;-80
2023/10/24 00:38:29;;;;;;;;;;;;;;;;;;5102982;28;19911;-80
2023/10/24 00:40:54;;;;;;;;;;;;;;;;;;5103068;28;19914;-80
2023/10/24 00:43:20;;;;;;;;;;;;;;;;;;5121704;28;19915;-80
2023/10/24 00:45:49;;;;;;;;;;;;;;;;;;5090527;28;20347;-80
2023/10/24 00:48:14;;;;;;;;;;;;;;;;;;5125367;28;19925;-80
2023/10/24 00:50:40;;;;;;;;;;;;;;;;;;5126154;28;19914;-81
2023/10/24 00:53:05;;;;;;;;;;;;;;;;;;5145001;28;19938;-81
2023/10/24 00:55:31;;;;;;;;;;;;;;;;;;5144107;28;19907;-80
2023/10/24 00:57:59;;;;;;;;;;;;;;;;;;5109235;28;20558;-80
2023/10/24 01:00:26;;;;;;;;;;;;;;;;;;5143130;27;19939;-80
2023/10/24 01:02:51;;;;;;;;;;;;;;;;;;5110056;27;19955;-80
2023/10/24 01:05:19;;;;;;;;;;;;;;;;;;5089631;28;19904;-79
2023/10/24 01:07:45;;;;;;;;;;;;;;;;;;5089193;28;19930;-79
2023/10/24 01:10:10;;;;;;;;;;;;;;;;;;5087478;28;19904;-80
2023/10/24 01:12:36;;;;;;;;;;;;;;;;;;5073504;28;19908;-80
2023/10/24 01:15:03;;;;;;;;;;;;;;;;;;5106659;28;19915;-80
2023/10/24 01:17:30;;;;;;;;;;;;;;;;;;5107612;28;19975;-80
2023/10/24 01:19:57;;;;;;;;;;;;;;;;;;5075040;28;19908;-79
2023/10/24 01:22:23;;;;;;;;;;;;;;;;;;5075349;28;19908;-80
2023/10/24 01:24:52;;;;;;;;;;;;;;;;;;5091771;28;19907;-81
2023/10/24 01:27:17;;;;;;;;;;;;;;;;;;5091391;28;19920;-79
2023/10/24 01:29:43;;;;;;;;;;;;;;;;;;5108656;28;20011;-80
2023/10/24 01:32:10;;;;;;;;;;;;;;;;;;5091291;28;19933;-80
2023/10/24 01:34:35;;;;;;;;;;;;;;;;;;5097078;28;19908;-79
2023/10/24 01:37:01;;;;;;;;;;;;;;;;;;5098287;28;19904;-80
2023/10/24 01:39:27;;;;;;;;;;;;;;;;;;5129830;28;19965;-80
2023/10/24 01:41:53;;;;;;;;;;;;;;;;;;5129381;28;19930;-80
2023/10/24 01:44:18;;;;;;;;;;;;;;;;;;5095053;28;19912;-81
2023/10/24 01:46:44;;;;;;;;;;;;;;;;;;5140637;27;19908;-80
2023/10/24 01:49:09;;;;;;;;;;;;;;;;;;5146997;27;20263;-79
2023/10/24 01:51:40;;;;;;;;;;;;;;;;;;5139868;27;19911;-80
2023/10/24 01:54:06;;;;;;;;;;;;;;;;;;5139596;27;20010;-79
2023/10/24 01:56:31;;;;;;;;;;;;;;;;;;5142528;27;19938;-80
2023/10/24 01:58:58;;;;;;;;;;;;;;;;;;5125731;27;20005;-80
2023/10/24 02:01:23;;;;;;;;;;;;;;;;;;5142806;27;19950;-81
2023/10/24 02:03:49;;;;;;;;;;;;;;;;;;5141096;27;19961;-80
2023/10/24 02:06:14;;;;;;;;;;;;;;;;;;5125251;28;19930;-79
2023/10/24 02:08:40;;;;;;;;;;;;;;;;;;5072819;28;19907;-81
2023/10/24 02:11:05;;;;;;;;;;;;;;;;;;5106685;28;19914;-79
2023/10/24 02:13:31;;;;;;;;;;;;;;;;;;5090008;28;19907;-81
2023/10/24 02:15:58;;;;;;;;;;;;;;;;;;5105071;28;20393;-79
2023/10/24 02:18:24;;;;;;;;;;;;;;;;;;5072201;28;19937;-80
2023/10/24 02:20:49;;;;;;;;;;;;;;;;;;5106559;28;20317;-81
2023/10/24 02:23:14;;;;;;;;;;;;;;;;;;5117761;28;19911;-81
2023/10/24 02:25:41;;;;;;;;;;;;;;;;;;5086862;28;19896;-81
2023/10/24 02:28:19;;;;;;;;;;;;;;;;;;5118743;28;19911;-80
2023/10/24 02:30:45;;;;;;;;;;;;;;;;;;5093122;28;20003;-81
2023/10/24 02:33:10;;;;;;;;;;;;;;;;;;5106991;28;19908;-79
2023/10/24 02:35:35;;;;;;;;;;;;;;;;;;5112983;28;19892;-81
2023/10/24 02:38:01;;;;;;;;;;;;;;;;;;5113065;28;20386;-80
2023/10/24 02:40:28;;;;;;;;;;;;;;;;;;5120917;28;19971;-80
2023/10/24 02:42:53;;;;;;;;;;;;;;;;;;5121442;28;19900;-80
2023/10/24 02:45:19;;;;;;;;;;;;;;;;;;5104676;28;19896;-79
2023/10/24 02:47:44;;;;;;;;;;;;;;;;;;5104844;28;19895;-79
2023/10/24 02:50:09;;;;;;;;;;;;;;;;;;5112299;28;19916;-80
2023/10/24 02:52:35;;;;;;;;;;;;;;;;;;5122843;28;19912;-79
2023/10/24 02:55:00;;;;;;;;;;;;;;;;;;5103780;28;19908;-81
2023/10/24 02:57:27;;;;;;;;;;;;;;;;;;5086578;28;20275;-79
2023/10/24 02:59:53;;;;;;;;;;;;;;;;;;5103492;28;19987;-81
2023/10/24 03:02:18;;;;;;;;;;;;;;;;;;5071173;28;19926;-81
2023/10/24 03:04:43;;;;;;;;;;;;;;;;;;5095258;28;19953;-80
2023/10/24 03:07:09;;;;;;;;;;;;;;;;;;5070973;28;19971;-81
2023/10/24 03:09:35;;;;;;;;;;;;;;;;;;5071259;28;19914;-80
2023/10/24 03:12:00;;;;;;;;;;;;;;;;;;5087516;28;19908;-81
2023/10/24 03:14:26;;;;;;;;;;;;;;;;;;5085430;28;20438;-79
2023/10/24 03:16:52;;;;;;;;;;;;;;;;;;5086296;28;20253;-79
2023/10/24 03:19:19;;;;;;;;;;;;;;;;;;5102534;28;20228;-80
2023/10/24 03:21:45;;;;;;;;;;;;;;;;;;5085917;28;19908;-81
2023/10/24 03:24:10;;;;;;;;;;;;;;;;;;5069601;28;19933;-80
2023/10/24 03:26:36;;;;;;;;;;;;;;;;;;5069441;28;19903;-80
2023/10/24 03:29:01;;;;;;;;;;;;;;;;;;5088181;28;20006;-80
2023/10/24 03:31:27;;;;;;;;;;;;;;;;;;5086763;28;19908;-80
2023/10/24 03:33:53;;;;;;;;;;;;;;;;;;5119732;28;19914;-80
2023/10/24 03:36:19;;;;;;;;;;;;;;;;;;5085268;28;19903;-82
2023/10/24 03:38:45;;;;;;;;;;;;;;;;;;5123487;28;19930;-79
2023/10/24 03:41:10;;;;;;;;;;;;;;;;;;5122453;28;19904;-82
2023/10/24 03:43:35;;;;;;;;;;;;;;;;;;5104306;28;19914;-82
2023/10/24 03:46:01;;;;;;;;;;;;;;;;;;5123459;27;19908;-80
2023/10/24 03:48:26;;;;;;;;;;;;;;;;;;5145102;27;19907;-80
2023/10/24 03:50:52;;;;;;;;;;;;;;;;;;5141681;27;19929;-81
2023/10/24 03:53:17;;;;;;;;;;;;;;;;;;5142069;27;19918;-80
2023/10/24 03:55:43;;;;;;;;;;;;;;;;;;5143564;27;19958;-80
2023/10/24 03:58:08;;;;;;;;;;;;;;;;;;5123500;27;19911;-80
2023/10/24 04:00:34;;;;;;;;;;;;;;;;;;5142050;27;19907;-80
2023/10/24 04:03:00;;;;;;;;;;;;;;;;;;5142562;27;19907;-79
2023/10/24 04:05:25;;;;;;;;;;;;;;;;;;5107614;27;20354;-79
2023/10/24 04:07:53;;;;;;;;;;;;;;;;;;5124490;27;19908;-79
2023/10/24 04:10:18;;;;;;;;;;;;;;;;;;5125189;27;19907;-80
2023/10/24 04:12:44;;;;;;;;;;;;;;;;;;5108576;28;20284;-80
2023/10/24 04:15:10;;;;;;;;;;;;;;;;;;5127277;27;19907;-81
2023/10/24 04:17:36;;;;;;;;;;;;;;;;;;5145752;27;19907;-80
2023/10/24 04:20:01;;;;;;;;;;;;;;;;;;5125959;28;19914;-81
2023/10/24 04:22:27;;;;;;;;;;;;;;;;;;5127333;28;19964;-80
2023/10/24 04:24:53;;;;;;;;;;;;;;;;;;5127085;28;19903;-80
2023/10/24 04:27:18;;;;;;;;;;;;;;;;;;5142429;27;19959;-81
2023/10/24 04:29:44;;;;;;;;;;;;;;;;;;5106066;28;20399;-81
2023/10/24 04:32:10;;;;;;;;;;;;;;;;;;5089697;28;19904;-82
2023/10/24 04:34:38;;;;;;;;;;;;;;;;;;5146026;27;19950;-80
2023/10/24 04:37:04;;;;;;;;;;;;;;;;;;5129449;27;20271;-80
2023/10/24 04:39:29;;;;;;;;;;;;;;;;;;5113618;27;20363;-81
2023/10/24 04:41:55;;;;;;;;;;;;;;;;;;5149447;27;19918;-81
2023/10/24 04:44:20;;;;;;;;;;;;;;;;;;5128991;27;19903;-80
2023/10/24 04:46:46;;;;;;;;;;;;;;;;;;5094978;27;19913;-80
2023/10/24 04:49:11;;;;;;;;;;;;;;;;;;5112078;27;19915;-79
2023/10/24 04:51:37;;;;;;;;;;;;;;;;;;5130900;27;19918;-81
2023/10/24 04:54:02;;;;;;;;;;;;;;;;;;5151521;27;19908;-81
2023/10/24 04:56:28;;;;;;;;;;;;;;;;;;5118307;27;19914;-81
2023/10/24 04:58:55;;;;;;;;;;;;;;;;;;5154170;27;19919;-80
2023/10/24 05:01:20;;;;;;;;;;;;;;;;;;5152499;27;19935;-82
2023/10/24 05:03:48;;;;;;;;;;;;;;;;;;5147808;27;19926;-81
2023/10/24 05:06:13;;;;;;;;;;;;;;;;;;5147936;27;19928;-82
2023/10/24 05:08:38;;;;;;;;;;;;;;;;;;5130007;27;19982;-81
2023/10/24 05:11:04;;;;;;;;;;;;;;;;;;5130523;27;19907;-81
2023/10/24 05:13:30;;;;;;;;;;;;;;;;;;5148731;27;19903;-82
2023/10/24 05:15:55;;;;;;;;;;;;;;;;;;5096595;27;19907;-83
2023/10/24 05:18:21;;;;;;;;;;;;;;;;;;5130791;27;19958;-81
2023/10/24 05:20:47;;;;;;;;;;;;;;;;;;5114322;27;19907;-80
2023/10/24 05:23:14;;;;;;;;;;;;;;;;;;5145896;27;19995;-80
2023/10/24 05:25:39;;;;;;;;;;;;;;;;;;5154709;27;19907;-81
2023/10/24 05:28:04;;;;;;;;;;;;;;;;;;5139163;27;19928;-79
2023/10/24 05:30:30;;;;;;;;;;;;;;;;;;5160067;27;19899;-80
2023/10/24 05:32:58;;;;;;;;;;;;;;;;;;5159128;27;19896;-79
2023/10/24 05:35:29;;;;;;;;;;;;;;;;;;5137072;27;19911;-80
2023/10/24 05:37:58;;;;;;;;;;;;;;;;;;5098825;27;19991;-79
2023/10/24 05:40:24;;;;;;;;;;;;;;;;;;5142278;27;19903;-77
2023/10/24 05:42:49;;;;;;;;;;;;;;;;;;5107387;27;20306;-79
2023/10/24 05:45:14;;;;;;;;;;;;;;;;;;5141833;27;19956;-80
2023/10/24 05:47:40;;;;;;;;;;;;;;;;;;5131815;27;19908;-82
2023/10/24 05:50:07;;;;;;;;;;;;;;;;;;5140964;27;19907;-78
2023/10/24 05:52:32;;;;;;;;;;;;;;;;;;5126216;27;19903;-79
2023/10/24 05:54:58;;;;;;;;;;;;;;;;;;5154375;27;19978;-79
2023/10/24 05:57:24;;;;;;;;;;;;;;;;;;5141978;27;19907;-78
2023/10/24 05:59:50;;;;;;;;;;;;;;;;;;5142290;27;19915;-79
2023/10/24 06:02:18;;;;;;;;;;;;;;;;;;5140983;27;19962;-80
2023/10/24 06:04:44;;;;;;;;;;;;;;;;;;5096881;27;19994;-78
2023/10/24 06:07:09;;;;;;;;;;;;;;;;;;5106456;27;19904;-79
2023/10/24 06:09:35;;;;;;;;;;;;;;;;;;5121524;27;19907;-79
2023/10/24 06:12:03;;;;;;;;;;;;;;;;;;5139685;27;19907;-79
2023/10/24 06:14:28;;;;;;;;;;;;;;;;;;5138582;27;19911;-81
2023/10/24 06:16:57;;;;;;;;;;;;;;;;;;5140148;27;19915;-82
2023/10/24 06:19:23;;;;;;;;;;;;;;;;;;5104276;27;19911;-82
2023/10/24 06:21:49;;;;;;;;;;;;;;;;;;5106747;27;19908;-79
2023/10/24 06:24:14;;;;;;;;;;;;;;;;;;5121900;27;20254;-81
2023/10/24 06:26:40;;;;;;;;;;;;;;;;;;5088270;27;19907;-81
2023/10/24 06:29:05;;;;;;;;;;;;;;;;;;5105762;27;19921;-82
2023/10/24 06:31:30;;;;;;;;;;;;;;;;;;5105479;27;20283;-81
2023/10/24 06:33:56;;;;;;;;;;;;;;;;;;5104771;27;20291;-81
2023/10/24 06:36:21;;;;;;;;;;;;;;;;;;5105827;27;19904;-80
2023/10/24 06:38:47;;;;;;;;;;;;;;;;;;5119053;28;19912;-81
2023/10/24 06:41:13;;;;;;;;;;;;;;;;;;5099180;28;19915;-81
2023/10/24 06:43:39;;;;;;;;;;;;;;;;;;5117147;28;19908;-81
2023/10/24 06:46:06;;;;;;;;;;;;;;;;;;5124089;28;20280;-81
2023/10/24 06:48:31;;;;;;;;;;;;;;;;;;5101305;27;19915;-82
2023/10/24 06:50:57;;;;;;;;;;;;;;;;;;5138437;27;19910;-81
2023/10/24 06:53:25;;;;;;;;;;;;;;;;;;5107606;27;20069;-83
2023/10/24 06:55:51;;;;;;;;;;;;;;;;;;5104085;28;19946;-81
2023/10/24 06:58:17;;;;;;;;;;;;;;;;;;5084128;28;20355;-82
2023/10/24 07:00:42;;;;;;;;;;;;;;;;;;5101491;28;19908;-79
2023/10/24 07:03:08;;;;;;;;;;;;;;;;;;5119791;28;19930;-81
2023/10/24 07:05:33;;;;;;;;;;;;;;;;;;5131879;27;19907;-80
2023/10/24 07:07:59;;;;;;;;;;;;;;;;;;5105073;27;20328;-80
2023/10/24 07:10:25;;;;;;;;;;;;;;;;;;5123094;27;19907;-82
2023/10/24 07:12:51;;;;;;;;;;;;;;;;;;5152768;27;19975;-80
2023/10/24 07:15:17;;;;;;;;;;;;;;;;;;5094897;27;19918;-78
2023/10/24 07:17:42;;;;;;;;;;;;;;;;;;5112078;27;19919;-80
2023/10/24 07:20:08;;;;;;;;;;;;;;;;;;5152910;27;19900;-79
2023/10/24 07:22:33;;;;;;;;;;;;;;;;;;5117411;27;19994;-79
2023/10/24 07:24:59;;;;;;;;;;;;;;;;;;5123605;28;20360;-81
2023/10/24 07:27:25;;;;;;;;;;;;;;;;;;5101878;28;19995;-81
2023/10/24 07:29:50;;;;;;;;;;;;;;;;;;5101675;28;20376;-80
2023/10/24 07:32:15;;;;;;;;;;;;;;;;;;5119170;28;19908;-81
2023/10/24 07:34:44;;;;;;;;;;;;;;;;;;5081987;28;19986;-79
2023/10/24 07:37:10;;;;;;;;;;;;;;;;;;5118372;28;19991;-79
2023/10/24 07:39:37;;;;;;;;;;;;;;;;;;5084070;28;20295;-77
2023/10/24 07:42:02;;;;;;;;;;;;;;;;;;5098419;28;19961;-79
2023/10/24 07:44:32;;;;;;;;;;;;;;;;;;5081689;28;20345;-81
2023/10/24 07:46:57;;;;;;;;;;;;;;;;;;5119130;27;19915;-80
2023/10/24 07:49:23;;;;;;;;;;;;;;;;;;5103690;27;19915;-79
2023/10/24 07:51:48;;;;;;;;;;;;;;;;;;5104437;27;19907;-80
2023/10/24 07:54:13;;;;;;;;;;;;;;;;;;5103688;27;19978;-81
2023/10/24 07:56:43;;;;;;;;;;;;;;;;;;5138034;27;19907;-79
2023/10/24 07:59:08;;;;;;;;;;;;;;;;;;5138131;27;20011;-80
2023/10/24 08:01:34;;;;;;;;;;;;;;;;;;5121632;27;19946;-80
2023/10/24 08:03:59;;;;;;;;;;;;;;;;;;5101388;28;19911;-79
2023/10/24 08:06:24;;;;;;;;;;;;;;;;;;5138595;27;19904;-81
2023/10/24 08:08:50;;;;;;;;;;;;;;;;;;5140083;27;19933;-80
2023/10/24 08:11:15;;;;;;;;;;;;;;;;;;5110220;27;19946;-80
2023/10/24 08:13:41;;;;;;;;;;;;;;;;;;5133078;28;19907;-80
2023/10/24 08:16:06;;;;;;;;;;;;;;;;;;5156450;27;19910;-81
2023/10/24 08:18:31;;;;;;;;;;;;;;;;;;5158406;27;19915;-80
2023/10/24 08:20:57;;;;;;;;;;;;;;;;;;5139536;27;19907;-80
2023/10/24 08:23:22;;;;;;;;;;;;;;;;;;5140519;28;19925;-79
2023/10/24 08:25:48;;;;;;;;;;;;;;;;;;5134778;28;19918;-80
2023/10/24 08:28:13;;;;;;;;;;;;;;;;;;5120673;28;20317;-79
2023/10/24 08:30:40;;;;;;;;;;;;;;;;;;5102233;28;19925;-80
2023/10/24 08:33:06;;;;;;;;;;;;;;;;;;5101877;28;19907;-79
2023/10/24 08:35:31;;;;;;;;;;;;;;;;;;5116604;28;20033;-79
2023/10/24 08:37:56;;;;;;;;;;;;;;;;;;5135209;28;19978;-80
2023/10/24 08:40:22;;;;;;;;;;;;;;;;;;5102258;28;19910;-80
2023/10/24 08:42:47;;;;;;;;;;;;;;;;;;5117564;28;19911;-81
2023/10/24 08:45:12;;;;;;;;;;;;;;;;;;5136244;28;19910;-79
2023/10/24 08:47:41;;;;;;;;;;;;;;;;;;5102541;28;20297;-82
2023/10/24 08:50:06;;;;;;;;;;;;;;;;;;5137409;28;19903;-81
2023/10/24 08:52:32;;;;;;;;;;;;;;;;;;5102406;28;20001;-81
2023/10/24 08:54:57;;;;;;;;;;;;;;;;;;5139966;28;19919;-82
2023/10/24 08:57:23;;;;;;;;;;;;;;;;;;5120577;28;19975;-82
2023/10/24 08:59:48;;;;;;;;;;;;;;;;;;5110889;28;19918;-80
2023/10/24 09:02:14;;;;;;;;;;;;;;;;;;5098622;28;19904;-82
2023/10/24 09:04:40;;;;;;;;;;;;;;;;;;5099801;28;19971;-82
2023/10/24 09:07:06;;;;;;;;;;;;;;;;;;5099710;28;19915;-81
2023/10/24 09:09:31;;;;;;;;;;;;;;;;;;5116798;28;20308;-81
2023/10/24 09:12:00;;;;;;;;;;;;;;;;;;5098944;28;19908;-81
2023/10/24 09:14:29;;;;;;;;;;;;;;;;;;5116304;28;19961;-82
2023/10/24 09:16:54;;;;;;;;;;;;;;;;;;5104306;28;20002;-80
2023/10/24 09:19:23;;;;;;;;;;;;;;;;;;5080943;28;20367;-82
2023/10/24 09:21:49;;;;;;;;;;;;;;;;;;5118782;28;19957;-81
2023/10/24 09:24:14;;;;;;;;;;;;;;;;;;5084897;28;20352;-82
2023/10/24 09:26:40;;;;;;;;;;;;;;;;;;5102040;28;19908;-81
2023/10/24 09:29:05;;;;;;;;;;;;;;;;;;5118878;28;20225;-82
2023/10/24 09:31:34;;;;;;;;;;;;;;;;;;5120857;28;19915;-82
2023/10/24 09:33:59;;;;;;;;;;;;;;;;;;5085317;28;19908;-81
2023/10/24 09:36:25;;;;;;;;;;;;;;;;;;5094453;28;19990;-82
2023/10/24 09:38:50;;;;;;;;;;;;;;;;;;5083861;28;20299;-81
2023/10/24 09:41:16;;;;;;;;;;;;;;;;;;5085017;28;19904;-82
2023/10/24 09:43:42;;;;;;;;;;;;;;;;;;5101351;28;19908;-81
2023/10/24 09:46:07;;;;;;;;;;;;;;;;;;5102676;28;19930;-82
2023/10/24 09:48:33;;;;;;;;;;;;;;;;;;5120242;28;19908;-80
2023/10/24 09:50:59;;;;;;;;;;;;;;;;;;5119495;28;20057;-81
2023/10/24 09:53:24;;;;;;;;;;;;;;;;;;5117482;27;19927;-82
2023/10/24 09:55:50;;;;;;;;;;;;;;;;;;5120011;28;19947;-81
2023/10/24 09:58:15;;;;;;;;;;;;;;;;;;5122122;28;19915;-81
2023/10/24 10:00:42;;;;;;;;;;;;;;;;;;5124948;28;19943;-81
2023/10/24 10:03:07;;;;;;;;;;;;;;;;;;5111275;28;19986;-82
2023/10/24 10:05:33;;;;;;;;;;;;;;;;;;5095257;28;19908;-81
2023/10/24 10:07:58;;;;;;;;;;;;;;;;;;5107340;28;19910;-80
2023/10/24 10:10:24;;;;;;;;;;;;;;;;;;5107421;28;19914;-81
2023/10/24 10:12:49;;;;;;;;;;;;;;;;;;5111777;28;19946;-82
2023/10/24 10:15:17;;;;;;;;;;;;;;;;;;5127835;28;19955;-80
2023/10/24 10:17:43;;;;;;;;;;;;;;;;;;5105593;28;20344;-80
2023/10/24 10:20:11;;;;;;;;;;;;;;;;;;5121039;28;19908;-80
2023/10/24 10:22:37;;;;;;;;;;;;;;;;;;5086297;28;19925;-81
2023/10/24 10:25:02;;;;;;;;;;;;;;;;;;5102787;28;19908;-83
2023/10/24 10:27:27;;;;;;;;;;;;;;;;;;5102790;28;19966;-81
2023/10/24 10:29:56;;;;;;;;;;;;;;;;;;5103066;28;19907;-81
2023/10/24 10:32:21;;;;;;;;;;;;;;;;;;5099116;28;19904;-81
2023/10/24 10:34:47;;;;;;;;;;;;;;;;;;5122097;28;19954;-81
2023/10/24 10:37:12;;;;;;;;;;;;;;;;;;5120784;27;19918;-81
2023/10/24 10:39:37;;;;;;;;;;;;;;;;;;5112610;27;19915;-82
2023/10/24 10:42:03;;;;;;;;;;;;;;;;;;5122270;27;19907;-81
2023/10/24 10:44:29;;;;;;;;;;;;;;;;;;5121876;27;19930;-82
2023/10/24 10:46:54;;;;;;;;;;;;;;;;;;5123903;27;19903;-81
2023/10/24 10:49:19;;;;;;;;;;;;;;;;;;5142138;27;19990;-82
2023/10/24 10:51:45;;;;;;;;;;;;;;;;;;5140221;27;19903;-81
2023/10/24 10:54:10;;;;;;;;;;;;;;;;;;5104915;27;19935;-80
2023/10/24 10:56:36;;;;;;;;;;;;;;;;;;5101102;28;19960;-81
2023/10/24 10:59:01;;;;;;;;;;;;;;;;;;5121259;28;19912;-81
2023/10/24 11:01:27;;;;;;;;;;;;;;;;;;5129374;27;19892;-81
2023/10/24 11:03:52;;;;;;;;;;;;;;;;;;5155564;27;19931;-81
2023/10/24 11:06:17;;;;;;;;;;;;;;;;;;5159739;27;19927;-81
2023/10/24 11:08:43;;;;;;;;;;;;;;;;;;5159447;27;19918;-81
2023/10/24 11:11:11;;;;;;;;;;;;;;;;;;5159622;27;19975;-81
2023/10/24 11:13:37;;;;;;;;;;;;;;;;;;5124257;27;19895;-81
2023/10/24 11:16:05;;;;;;;;;;;;;;;;;;5132589;27;19910;-80
2023/10/24 11:18:30;;;;;;;;;;;;;;;;;;5143316;27;20005;-82
2023/10/24 11:20:56;;;;;;;;;;;;;;;;;;5135511;27;19939;-81
2023/10/24 11:23:21;;;;;;;;;;;;;;;;;;5118345;28;19959;-83
2023/10/24 11:25:46;;;;;;;;;;;;;;;;;;5100919;28;19908;-81
2023/10/24 11:28:12;;;;;;;;;;;;;;;;;;5099666;28;20395;-82
2023/10/24 11:30:40;;;;;;;;;;;;;;;;;;5118074;28;20049;-82
2023/10/24 11:33:05;;;;;;;;;;;;;;;;;;5100886;28;19939;-82
2023/10/24 11:35:31;;;;;;;;;;;;;;;;;;5102207;28;19904;-80
2023/10/24 11:37:56;;;;;;;;;;;;;;;;;;5130405;28;19969;-81
2023/10/24 11:40:24;;;;;;;;;;;;;;;;;;5146564;27;19970;-82
2023/10/24 11:42:50;;;;;;;;;;;;;;;;;;5120583;27;19903;-82
2023/10/24 11:45:15;;;;;;;;;;;;;;;;;;5137725;27;19911;-80
2023/10/24 11:47:41;;;;;;;;;;;;;;;;;;5144813;27;19908;-80
2023/10/24 11:50:07;;;;;;;;;;;;;;;;;;5102668;27;20356;-84
2023/10/24 11:52:32;;;;;;;;;;;;;;;;;;5120389;27;19926;-81
2023/10/24 11:54:57;;;;;;;;;;;;;;;;;;5119674;27;19976;-80
2023/10/24 11:57:23;;;;;;;;;;;;;;;;;;5137813;27;19998;-81
2023/10/24 11:59:53;;;;;;;;;;;;;;;;;;5104396;27;19932;-82
2023/10/24 12:02:19;;;;;;;;;;;;;;;;;;5116501;27;19919;-81
2023/10/24 12:04:44;;;;;;;;;;;;;;;;;;5138108;27;19891;-82
2023/10/24 12:07:10;;;;;;;;;;;;;;;;;;5134396;27;19942;-82
2023/10/24 12:09:35;;;;;;;;;;;;;;;;;;5120170;27;19907;-83
2023/10/24 12:12:02;;;;;;;;;;;;;;;;;;5102419;27;20003;-79
2023/10/24 12:14:28;;;;;;;;;;;;;;;;;;5083293;28;20339;-80
2023/10/24 12:16:54;;;;;;;;;;;;;;;;;;5081357;28;19908;-81
2023/10/24 12:19:22;;;;;;;;;;;;;;;;;;5081743;28;19912;-80
2023/10/24 12:21:47;;;;;;;;;;;;;;;;;;5102432;27;20511;-80
2023/10/24 12:24:13;;;;;;;;;;;;;;;;;;5095373;28;19908;-80
2023/10/24 12:26:38;;;;;;;;;;;;;;;;;;5110895;28;19964;-80
2023/10/24 12:29:09;;;;;;;;;;;;;;;;;;5048787;23;19928;-80
2023/10/24 12:31:34;;;;;;;;;;;;;;;;;;5015246;28;19915;-81
2023/10/24 12:34:03;;;;;;;;;;;;;;;;;;5034003;28;19909;-82
2023/10/24 12:36:28;;;;;;;;;;;;;;;;;;5017675;28;19916;-81
2023/10/24 12:38:54;;;;;;;;;;;;;;;;;;5015361;28;19985;-81
2023/10/24 12:41:19;;;;;;;;;;;;;;;;;;5015678;28;20031;-80
2023/10/24 12:43:44;;;;;;;;;;;;;;;;;;4982174;28;19945;-80
2023/10/24 12:46:10;;;;;;;;;;;;;;;;;;4982771;28;19910;-79
2023/10/24 12:48:39;;;;;;;;;;;;;;;;;;4985128;28;19917;-82
2023/10/24 12:51:04;;;;;;;;;;;;;;;;;;4999181;28;20084;-82
2023/10/24 12:53:29;;;;;;;;;;;;;;;;;;4999222;28;19909;-82
2023/10/24 12:56:01;;;;;;;;;;;;;;;;;;4982822;28;19944;-82
2023/10/24 12:58:28;;;;;;;;;;;;;;;;;;5000012;28;19914;-81
2023/10/24 13:00:55;;;;;;;;;;;;;;;;;;4984495;28;19909;-82
2023/10/24 13:03:21;;;;;;;;;;;;;;;;;;4984280;28;19912;-81
2023/10/24 13:05:46;;;;;;;;;;;;;;;;;;4984787;28;19921;-81
2023/10/24 13:08:13;;;;;;;;;;;;;;;;;;5018382;28;19921;-82
2023/10/24 13:10:38;;;;;;;;;;;;;;;;;;5002950;28;19984;-81
2023/10/24 13:13:05;;;;;;;;;;;;;;;;;;5002807;28;19932;-80
2023/10/24 13:15:31;;;;;;;;;;;;;;;;;;5002433;28;19985;-83
2023/10/24 13:17:57;;;;;;;;;;;;;;;;;;5010051;28;19962;-81
2023/10/24 13:20:23;;;;;;;;;;;;;;;;;;4999737;28;19913;-81
2023/10/24 13:22:48;;;;;;;;;;;;;;;;;;5013061;28;19956;-81
2023/10/24 13:25:14;;;;;;;;;;;;;;;;;;5013302;28;19917;-82
2023/10/24 13:27:42;;;;;;;;;;;;;;;;;;5027045;28;19906;-82
2023/10/24 13:30:08;;;;;;;;;;;;;;;;;;5028271;28;19917;-82
2023/10/24 13:32:33;;;;;;;;;;;;;;;;;;4997211;28;19929;-81
2023/10/24 13:34:59;;;;;;;;;;;;;;;;;;5013666;28;19910;-82
2023/10/24 13:37:25;;;;;;;;;;;;;;;;;;5014671;28;19910;-81
2023/10/24 13:39:52;;;;;;;;;;;;;;;;;;5043161;28;19913;-82
2023/10/24 13:42:20;;;;;;;;;;;;;;;;;;4999834;28;19913;-81
2023/10/24 13:44:46;;;;;;;;;;;;;;;;;;4981618;28;19916;-81
2023/10/24 13:47:12;;;;;;;;;;;;;;;;;;5002021;28;19902;-81
2023/10/24 13:49:39;;;;;;;;;;;;;;;;;;5018167;28;19942;-81
2023/10/24 13:52:09;;;;;;;;;;;;;;;;;;5002694;28;19913;-80
2023/10/24 13:54:34;;;;;;;;;;;;;;;;;;4986226;28;19901;-81
2023/10/24 13:57:00;;;;;;;;;;;;;;;;;;5001692;28;19917;-81
2023/10/24 13:59:26;;;;;;;;;;;;;;;;;;4999684;28;19932;-81
2023/10/24 14:01:53;;;;;;;;;;;;;;;;;;4992619;28;19916;-80
2023/10/24 14:04:20;;;;;;;;;;;;;;;;;;4974548;28;19928;-81
2023/10/24 14:06:45;;;;;;;;;;;;;;;;;;4994907;28;19910;-80
2023/10/24 14:09:14;;;;;;;;;;;;;;;;;;4976778;28;19909;-81
2023/10/24 14:11:39;;;;;;;;;;;;;;;;;;4978692;28;19920;-80
2023/10/24 14:14:05;;;;;;;;;;;;;;;;;;4969356;28;19925;-81
2023/10/24 14:16:34;;;;;;;;;;;;;;;;;;4974638;28;20384;-81
2023/10/24 14:19:00;;;;;;;;;;;;;;;;;;4999298;28;19948;-81
2023/10/24 14:21:26;;;;;;;;;;;;;;;;;;4998844;28;19909;-80
2023/10/24 14:23:52;;;;;;;;;;;;;;;;;;4994407;28;19920;-82
2023/10/24 14:33:48;;;;;;;;;;;;;;;;;;4944479;28;19929;-83
2023/10/24 14:36:48;;;;;;;;;;;;;;;;;;;;;
2023/10/24 14:57:13;;;;;;;;;;;;;;;;;;5017687;28;19941;-82
2023/10/24 14:59:39;;;;;;;;;;;;;;;;;;4994990;28;19949;-81
2023/10/24 15:02:06;;;;;;;;;;;;;;;;;;4994390;28;19909;-82
2023/10/24 15:04:33;;;;;;;;;;;;;;;;;;4964929;28;19909;-83
2023/10/24 15:06:58;;;;;;;;;;;;;;;;;;4976307;28;19928;-83
2023/10/24 15:09:25;;;;;;;;;;;;;;;;;;4965264;28;19932;-82
2023/10/24 15:11:51;;;;;;;;;;;;;;;;;;4966411;28;20381;-83
2023/10/24 15:14:19;;;;;;;;;;;;;;;;;;4967045;28;19982;-82
2023/10/24 15:16:44;;;;;;;;;;;;;;;;;;4966653;28;19982;-84
2023/10/24 15:19:11;;;;;;;;;;;;;;;;;;4981882;28;20393;-83
2023/10/24 15:21:36;;;;;;;;;;;;;;;;;;4964090;28;19909;-82
2023/10/24 15:24:02;;;;;;;;;;;;;;;;;;4965143;28;20380;-83
2023/10/24 15:26:35;;;;;;;;;;;;;;;;;;4983673;28;20412;-84
2023/10/24 15:29:00;;;;;;;;;;;;;;;;;;4982969;28;20391;-83
2023/10/24 15:31:26;;;;;;;;;;;;;;;;;;4967761;28;19941;-83
2023/10/24 15:33:51;;;;;;;;;;;;;;;;;;4968768;28;20013;-82
2023/10/24 15:36:17;;;;;;;;;;;;;;;;;;4967358;28;20391;-84
2023/10/24 15:38:45;;;;;;;;;;;;;;;;;;4984457;28;19929;-83
2023/10/24 15:41:10;;;;;;;;;;;;;;;;;;4967046;28;19977;-81
2023/10/24 15:43:36;;;;;;;;;;;;;;;;;;4984255;28;19910;-83
2023/10/24 15:46:01;;;;;;;;;;;;;;;;;;4966662;28;19940;-81
2023/10/24 15:48:26;;;;;;;;;;;;;;;;;;4983744;28;19933;-82
2023/10/24 15:50:53;;;;;;;;;;;;;;;;;;4966451;28;19921;-82
2023/10/24 15:53:18;;;;;;;;;;;;;;;;;;4973904;28;19910;-81
2023/10/24 15:55:44;;;;;;;;;;;;;;;;;;4963951;28;19913;-82
2023/10/24 15:58:09;;;;;;;;;;;;;;;;;;4965533;28;19913;-83
2023/10/24 16:00:35;;;;;;;;;;;;;;;;;;4966474;28;19905;-83
2023/10/24 16:03:01;;;;;;;;;;;;;;;;;;4964330;28;19909;-82
2023/10/24 16:05:26;;;;;;;;;;;;;;;;;;4948773;28;20061;-82
2023/10/24 16:07:54;;;;;;;;;;;;;;;;;;4964173;28;20373;-80
2023/10/24 16:10:20;;;;;;;;;;;;;;;;;;4947981;28;20004;-80
2023/10/24 16:12:45;;;;;;;;;;;;;;;;;;4962912;28;19916;-81
2023/10/24 16:15:11;;;;;;;;;;;;;;;;;;4964852;28;19913;-78
2023/10/24 16:17:38;;;;;;;;;;;;;;;;;;4947221;28;19910;-80
2023/10/24 16:20:07;;;;;;;;;;;;;;;;;;4948114;28;19910;-79
2023/10/24 16:22:32;;;;;;;;;;;;;;;;;;4978335;28;19957;-79
2023/10/24 16:24:58;;;;;;;;;;;;;;;;;;4994679;28;19964;-80
2023/10/24 16:27:24;;;;;;;;;;;;;;;;;;4947286;28;19917;-82
2023/10/24 16:29:51;;;;;;;;;;;;;;;;;;4949927;28;19941;-81
2023/10/24 16:32:17;;;;;;;;;;;;;;;;;;4949174;28;20355;-82
2023/10/24 16:34:43;;;;;;;;;;;;;;;;;;4994490;28;19906;-83
2023/10/24 16:37:09;;;;;;;;;;;;;;;;;;4967381;28;19898;-82
2023/10/24 16:39:34;;;;;;;;;;;;;;;;;;4967671;28;19906;-82
2023/10/24 16:41:59;;;;;;;;;;;;;;;;;;4983760;28;20055;-81
2023/10/24 16:44:25;;;;;;;;;;;;;;;;;;4982977;28;19913;-81
2023/10/24 16:46:50;;;;;;;;;;;;;;;;;;4982805;28;19921;-81
2023/10/24 16:49:17;;;;;;;;;;;;;;;;;;4966971;28;19940;-83
2023/10/24 16:51:42;;;;;;;;;;;;;;;;;;4963275;28;19909;-81
2023/10/24 16:54:11;;;;;;;;;;;;;;;;;;4968613;28;20025;-81
2023/10/24 16:56:38;;;;;;;;;;;;;;;;;;4976233;28;19957;-81
2023/10/24 16:59:04;;;;;;;;;;;;;;;;;;4947700;28;19929;-81
2023/10/24 17:01:29;;;;;;;;;;;;;;;;;;4963313;28;19910;-82
2023/10/24 17:03:55;;;;;;;;;;;;;;;;;;4978196;28;20016;-80